Anahola, HI

7:49 PM HST on March 29, 2015 (GMT -1000)
WAILUA HOMESTEADS | | Change Station
CLOSE
Current Station
Personal Weather Station
Location: Kapaa, HI
Elevation: 361 ft
Nearby Weather Stations
Active Advisory: High Surf Advisory

Elev 361 ft 22.07 °N, 159.36 °W | Updated 42 seconds ago

Overcast
Overcast
69.9 °F
Feels Like 69.9 °F
N
0.0
Wind Variable Wind from ESE
Gusts 9.0 mph

Today
High -- | Low -- °F
--% Chance of Precip.
Yesterday
High -- | Low -- °F
Precip. -- in
6:32 AM 6:51 PM
Waxing Gibbous, 77% visible
Pressure 30.16 in
Visibility 10.0 miles
Clouds Few 1300 ft
Scattered Clouds 1900 ft
Overcast 3900 ft
Dew Point 68 °F
Humidity 95%
Rainfall 0.04 in
Snow Depth Not available.
UV 0.0 out of 12
Pollen Not available.
Air Quality Not available.
Flu Activity Not available.
SPECI PHLI 300511Z 03011G17KT 10SM FEW013 SCT019 OVC039 23/20 A3016 RMK AO2 $

More Conditions Fewer Conditions

Pressure 30.16 in
Visibility 10.0 miles
Clouds Few 1300 ft
Scattered Clouds 1900 ft
Overcast 3900 ft
Dew Point 68 °F
Humidity 95%
Rainfall 0.04 in
Snow Depth Not available.
UV 0.0 out of 12
Pollen Not available.
Air Quality Not available.
Flu Activity Not available.
SPECI PHLI 300511Z 03011G17KT 10SM FEW013 SCT019 OVC039 23/20 A3016 RMK AO2 $

More Conditions Fewer Conditions

10-Day Weather Forecast

Almanac

Astronomy

Mar. 29, 2015 Rise Set
Actual Time
Civil Twilight
Nautical Twilight
Astronomical Twilight
Moon
Length of Visible Light
Length of Day
Tomorrow will be .
, % of the Moon is Illuminated

Today's Extremes

State Highs State Lows

Community

WunderPhotos

Upload Photos

1,809,437 photos uploaded!

WunderBlogs® & News

Nearby

Air Quality

  Air Quality AQ Index Pollutant
Not available.

Snow Depth

Station Depth Elevation

Earthquake Activity

City Distance Mag. Time & Date
Minimum magnitude displayed is 2.5.

Coastal Water Temperatures

Place Temperature

Stations

Nearby Weather Stations

Station Location Temp. Windchill Dew Point Humidity Wind Precip. Elev Updated Type
                   
High Surf Advisory
Statement as of 3:34 PM HST on March 29, 2015

... High surf advisory remains in effect until 6 am HST Monday...

A high surf advisory remains in effect until 6 am HST Monday.

* Surf... 12 to 16 feet on north and west facing shores of Kauai
and Niihau... and 10 to 15 feet on north facing shores of
Oahu... Molokai and Maui.

* Timing... through tonight.

* Impacts... moderate... expect strong breaking waves... shore
break... and strong longshore and rip currents making swimming
difficult and dangerous.

Precautionary/preparedness actions...

Beachgoers... swimmers... and surfers should heed all advice given
by ocean safety officials and exercise caution.



Birchard